Time;durP1;ratioP1;P1;durP2;ratioP2;P2;SDS_P1;SDS_P2;PMS_P1;PMS_P2;Temp;Humidity;BMP_temperature;BMP_pressure;BME280_temperature;BME280_humidity;BME280_pressure;Samples;Min_cycle;Max_cycle;Signal;HPM_P1;HPM_P2
2023/08/24 00:01:27;;;;;;;4.13;3.33;;;17.60;99.90;;;;;;4949654;28;20027;-56
2023/08/24 00:03:52;;;;;;;10.70;4.05;;;17.60;99.90;;;;;;4949566;28;20085;-56
2023/08/24 00:06:18;;;;;;;5.75;3.70;;;17.60;99.90;;;;;;4949622;28;20073;-56
2023/08/24 00:08:44;;;;;;;6.97;3.67;;;17.50;99.90;;;;;;4949211;28;20028;-56
2023/08/24 00:11:14;;;;;;;3.80;3.25;;;17.50;99.90;;;;;;4949572;28;20032;-56
2023/08/24 00:13:49;;;;;;;8.43;3.53;;;17.50;99.90;;;;;;4948645;28;20488;-56
2023/08/24 00:16:21;;;;;;;4.85;3.35;;;17.40;99.90;;;;;;4949364;28;20062;-56
2023/08/24 00:18:47;;;;;;;7.97;3.63;;;17.40;99.90;;;;;;4949408;28;20027;-56
2023/08/24 00:21:22;;;;;;;5.85;3.88;;;17.40;99.90;;;;;;4949766;28;20031;-55
2023/08/24 00:23:48;;;;;;;3.97;3.20;;;17.30;99.90;;;;;;4942305;28;20515;-55
2023/08/24 00:26:16;;;;;;;3.97;3.53;;;17.20;99.90;;;;;;4946048;29;20042;-56
2023/08/24 00:28:42;;;;;;;3.50;3.20;;;17.20;99.90;;;;;;4929973;29;20020;-56
2023/08/24 00:31:08;;;;;;;4.93;3.72;;;17.10;99.90;;;;;;4930393;29;20040;-56
2023/08/24 00:33:33;;;;;;;4.07;3.55;;;17.10;99.90;;;;;;4930305;29;20404;-56
2023/08/24 00:36:02;;;;;;;5.30;3.83;;;17.00;99.90;;;;;;4930242;29;20086;-56
2023/08/24 00:38:28;;;;;;;5.10;3.95;;;17.00;99.90;;;;;;4929489;29;20020;-55
2023/08/24 00:40:54;;;;;;;4.75;3.72;;;16.90;99.90;;;;;;4929911;29;20027;-55
2023/08/24 00:43:24;;;;;;;6.18;3.80;;;16.90;99.90;;;;;;4930060;29;20028;-56
2023/08/24 00:45:55;;;;;;;5.50;4.28;;;16.90;99.90;;;;;;4929875;29;20473;-55
2023/08/24 00:48:25;;;;;;;5.30;4.10;;;16.80;99.90;;;;;;4941113;29;20035;-55
2023/08/24 00:50:52;;;;;;;8.10;4.68;;;16.80;99.90;;;;;;4949141;28;20059;-55
2023/08/24 00:53:18;;;;;;;5.95;4.18;;;16.70;99.90;;;;;;4948979;28;20031;-55
2023/08/24 00:55:44;;;;;;;5.88;4.00;;;16.70;99.90;;;;;;4948946;28;20030;-55
2023/08/24 00:58:10;;;;;;;4.85;4.10;;;16.60;99.90;;;;;;4948635;28;20023;-55
2023/08/24 01:00:37;;;;;;;7.93;4.32;;;16.70;99.90;;;;;;4948662;28;20035;-56
2023/08/24 01:03:03;;;;;;;7.07;3.67;;;16.60;99.90;;;;;;4948609;28;20114;-56
2023/08/24 01:05:29;;;;;;;7.22;3.63;;;16.60;99.90;;;;;;4948669;29;20055;-55
2023/08/24 01:07:55;;;;;;;6.25;4.10;;;16.60;99.90;;;;;;4947968;28;20509;-55
2023/08/24 01:10:20;;;;;;;4.85;4.35;;;16.60;99.90;;;;;;4948629;29;20023;-56
2023/08/24 01:13:05;;;;;;;6.15;4.03;;;16.70;99.90;;;;;;4949030;28;20035;-55
2023/08/24 01:15:40;;;;;;;6.10;4.50;;;16.70;99.90;;;;;;4960281;28;20043;-55
2023/08/24 01:18:11;;;;;;;5.72;4.40;;;16.70;99.90;;;;;;4947275;29;20055;-55
2023/08/24 01:20:38;;;;;;;9.65;5.00;;;16.70;99.90;;;;;;4944286;28;20102;-56
2023/08/24 01:23:22;;;;;;;6.32;4.57;;;16.70;99.90;;;;;;4946773;29;20015;-56
2023/08/24 01:25:53;;;;;;;6.68;4.55;;;16.60;99.90;;;;;;4953107;28;20045;-57
2023/08/24 01:28:21;;;;;;;6.10;4.57;;;16.70;99.90;;;;;;4954658;29;20489;-56
2023/08/24 01:30:47;;;;;;;9.27;4.75;;;16.60;99.90;;;;;;4955084;28;20467;-56
2023/08/24 01:33:13;;;;;;;5.10;4.07;;;16.60;99.90;;;;;;4955077;28;20114;-56
2023/08/24 01:35:39;;;;;;;9.50;4.82;;;16.60;99.90;;;;;;4950555;28;20042;-57
2023/08/24 01:38:06;;;;;;;5.50;4.18;;;16.60;99.90;;;;;;4952892;29;20455;-56
2023/08/24 01:40:48;;;;;;;12.30;4.93;;;16.60;99.90;;;;;;4954932;28;20392;-56
2023/08/24 01:43:15;;;;;;;5.32;4.10;;;16.50;99.90;;;;;;4949665;28;20020;-57
2023/08/24 01:45:42;;;;;;;6.20;4.72;;;16.50;99.90;;;;;;4943601;28;20024;-56
2023/08/24 01:48:10;;;;;;;6.63;4.80;;;16.50;99.90;;;;;;4946319;28;20020;-57
2023/08/24 01:50:36;;;;;;;9.35;4.57;;;16.50;99.90;;;;;;4947417;28;20030;-57
2023/08/24 01:53:02;;;;;;;4.43;3.97;;;16.50;99.90;;;;;;4947371;28;20556;-57
2023/08/24 01:55:28;;;;;;;7.00;4.50;;;16.30;99.90;;;;;;4943179;28;20111;-56
2023/08/24 01:57:56;;;;;;;9.70;5.00;;;16.30;99.90;;;;;;4951132;29;20113;-56
2023/08/24 02:00:21;;;;;;;6.20;3.97;;;16.30;99.90;;;;;;4954562;28;20027;-56
2023/08/24 02:02:47;;;;;;;6.70;4.60;;;16.30;99.90;;;;;;4949773;28;20093;-57
2023/08/24 02:05:13;;;;;;;6.60;4.47;;;16.30;99.90;;;;;;4953769;28;20027;-56
2023/08/24 02:07:39;;;;;;;9.32;4.45;;;16.20;99.90;;;;;;4947765;28;20149;-56
2023/08/24 02:10:05;;;;;;;6.05;4.32;;;16.20;99.90;;;;;;4950132;29;20073;-56
2023/08/24 02:12:31;;;;;;;6.40;4.43;;;16.20;99.90;;;;;;4954486;28;20115;-56
2023/08/24 02:14:56;;;;;;;10.45;4.78;;;16.30;99.90;;;;;;4954431;28;20030;-56
2023/08/24 02:17:22;;;;;;;4.70;4.18;;;16.30;99.90;;;;;;4954072;28;20614;-56
2023/08/24 02:19:47;;;;;;;4.95;4.13;;;16.20;99.90;;;;;;4954422;29;20031;-56
2023/08/24 02:22:13;;;;;;;5.35;4.85;;;16.20;99.90;;;;;;4954092;28;20030;-56
2023/08/24 02:24:39;;;;;;;5.60;4.60;;;16.20;99.90;;;;;;4954348;29;20484;-56
2023/08/24 02:27:04;;;;;;;6.13;4.00;;;16.30;99.90;;;;;;4951059;28;20258;-56
2023/08/24 02:29:30;;;;;;;6.20;4.05;;;16.30;99.90;;;;;;4954213;28;20097;-56
2023/08/24 02:31:55;;;;;;;4.82;4.20;;;16.30;99.90;;;;;;4954294;29;20027;-57
2023/08/24 02:34:21;;;;;;;5.88;4.20;;;16.30;99.90;;;;;;4953957;29;20059;-56
2023/08/24 02:36:46;;;;;;;6.82;4.03;;;16.30;99.90;;;;;;4951542;28;20031;-57
2023/08/24 02:39:13;;;;;;;5.95;4.05;;;16.30;99.90;;;;;;4950311;29;20031;-56
2023/08/24 02:41:38;;;;;;;6.05;4.05;;;16.30;99.90;;;;;;4946298;28;20028;-57
2023/08/24 02:44:04;;;;;;;6.05;4.20;;;16.10;99.90;;;;;;4949124;28;20027;-57
2023/08/24 02:46:30;;;;;;;5.88;4.03;;;16.10;99.90;;;;;;4946528;28;20585;-57
2023/08/24 02:48:55;;;;;;;4.55;3.60;;;16.10;99.90;;;;;;4945657;29;20020;-56
2023/08/24 02:51:22;;;;;;;5.32;4.47;;;16.00;99.90;;;;;;4931649;29;20055;-57
2023/08/24 02:53:48;;;;;;;5.60;4.07;;;15.90;99.90;;;;;;4931545;29;20032;-57
2023/08/24 02:56:13;;;;;;;8.25;4.03;;;15.90;99.90;;;;;;4931431;29;20592;-57
2023/08/24 02:58:39;;;;;;;6.35;4.38;;;15.80;99.90;;;;;;4931138;29;20032;-57
2023/08/24 03:01:07;;;;;;;5.47;4.90;;;15.90;99.90;;;;;;4945995;28;20027;-57
2023/08/24 03:03:33;;;;;;;6.00;4.50;;;15.80;99.90;;;;;;4950440;28;20330;-57
2023/08/24 03:06:01;;;;;;;7.68;4.50;;;15.80;99.90;;;;;;4950422;28;20019;-57
2023/08/24 03:08:28;;;;;;;5.85;4.68;;;15.80;99.90;;;;;;4950204;28;20499;-57
2023/08/24 03:10:53;;;;;;;5.07;4.57;;;15.70;99.90;;;;;;4951078;28;20085;-55
2023/08/24 03:13:19;;;;;;;8.02;4.55;;;15.80;99.90;;;;;;4950925;28;20020;-55
2023/08/24 03:15:45;;;;;;;5.18;4.43;;;15.80;99.90;;;;;;4950674;28;20027;-55
2023/08/24 03:18:15;;;;;;;6.68;4.78;;;15.80;99.90;;;;;;4949886;28;20027;-54
2023/08/24 03:20:41;;;;;;;7.93;4.50;;;15.90;99.90;;;;;;4950334;29;20401;-55
2023/08/24 03:23:06;;;;;;;11.13;5.00;;;15.90;99.90;;;;;;4949945;28;20027;-55
2023/08/24 03:25:36;;;;;;;8.70;5.20;;;15.90;99.90;;;;;;4950389;28;20476;-55
2023/08/24 03:28:02;;;;;;;7.10;4.67;;;16.00;99.90;;;;;;4949774;28;20538;-55
2023/08/24 03:30:28;;;;;;;11.40;4.88;;;15.90;99.90;;;;;;4950519;29;20020;-54
2023/08/24 03:32:53;;;;;;;5.72;4.80;;;15.90;99.90;;;;;;4950335;28;20049;-54
2023/08/24 03:35:19;;;;;;;9.15;5.03;;;15.90;99.90;;;;;;4945572;29;20069;-55
2023/08/24 03:37:44;;;;;;;8.43;4.93;;;15.90;99.90;;;;;;4945223;28;20455;-55
2023/08/24 03:40:11;;;;;;;8.55;5.47;;;15.90;99.90;;;;;;4944985;28;20043;-55
2023/08/24 03:42:36;;;;;;;10.68;4.95;;;15.90;99.90;;;;;;4949944;28;20281;-55
2023/08/24 03:45:03;;;;;;;6.93;4.68;;;15.90;99.90;;;;;;4940868;28;20019;-54
2023/08/24 03:47:28;;;;;;;7.65;5.07;;;15.80;99.90;;;;;;4938120;28;20308;-54
2023/08/24 03:49:54;;;;;;;5.95;4.60;;;15.80;99.90;;;;;;4942517;28;20111;-54
2023/08/24 03:52:20;;;;;;;12.10;4.53;;;15.70;99.90;;;;;;4945254;28;20411;-54
2023/08/24 03:54:46;;;;;;;5.38;4.43;;;15.60;99.90;;;;;;4945470;29;20023;-54
2023/08/24 03:57:11;;;;;;;5.65;4.93;;;15.60;99.90;;;;;;4949263;29;20547;-56
2023/08/24 03:59:37;;;;;;;5.32;4.07;;;15.60;99.90;;;;;;4949713;29;20374;-56
2023/08/24 04:02:03;;;;;;;5.45;4.22;;;15.50;99.90;;;;;;4949595;28;20069;-58
2023/08/24 04:04:29;;;;;;;7.75;4.72;;;15.40;99.90;;;;;;4949600;28;20034;-58
2023/08/24 04:06:55;;;;;;;10.18;4.75;;;15.40;99.90;;;;;;4949362;28;20343;-57
2023/08/24 04:09:20;;;;;;;8.15;5.43;;;15.30;99.90;;;;;;4949574;28;20016;-58
2023/08/24 04:11:46;;;;;;;10.40;5.65;;;15.30;99.90;;;;;;4949710;29;20100;-57
2023/08/24 04:14:11;;;;;;;5.63;4.72;;;15.40;99.90;;;;;;4948910;28;20027;-57
2023/08/24 04:16:37;;;;;;;6.40;4.90;;;15.30;99.90;;;;;;4937319;29;20216;-58
2023/08/24 04:19:03;;;;;;;8.60;5.43;;;15.40;99.90;;;;;;4948997;29;20031;-57
2023/08/24 04:21:28;;;;;;;15.38;5.65;;;15.30;99.90;;;;;;4945102;28;20390;-57
2023/08/24 04:23:54;;;;;;;5.32;4.80;;;15.30;99.90;;;;;;4938579;29;20032;-58
2023/08/24 04:26:19;;;;;;;9.07;5.05;;;15.20;99.90;;;;;;4949458;29;20030;-57
2023/08/24 04:28:45;;;;;;;6.75;5.32;;;15.30;99.90;;;;;;4944848;29;20020;-58
2023/08/24 04:31:11;;;;;;;9.50;5.40;;;15.40;99.90;;;;;;4948651;29;20488;-57
2023/08/24 04:33:36;;;;;;;8.63;4.88;;;15.30;99.90;;;;;;4934517;29;20122;-57
2023/08/24 04:36:05;;;;;;;5.35;4.43;;;15.30;99.90;;;;;;4947325;29;20116;-57
2023/08/24 04:38:31;;;;;;;6.68;4.65;;;15.20;99.90;;;;;;4944565;28;20032;-57
2023/08/24 04:40:56;;;;;;;7.50;5.07;;;15.20;99.90;;;;;;4946456;28;20525;-57
2023/08/24 04:43:23;;;;;;;5.45;4.53;;;15.20;99.90;;;;;;4944761;29;20036;-57
2023/08/24 04:45:52;;;;;;;7.20;4.68;;;15.30;99.90;;;;;;4945420;29;20085;-57
2023/08/24 04:48:21;;;;;;;6.65;5.00;;;15.30;99.90;;;;;;4944608;28;20027;-57
2023/08/24 04:50:49;;;;;;;8.75;5.05;;;15.40;99.90;;;;;;4936470;28;20020;-56
2023/08/24 04:53:18;;;;;;;6.03;4.63;;;15.30;99.90;;;;;;4939651;29;20055;-56
2023/08/24 04:55:44;;;;;;;9.77;4.93;;;15.30;99.90;;;;;;4942301;28;20492;-56
2023/08/24 04:58:11;;;;;;;6.13;5.18;;;15.30;99.90;;;;;;4944863;28;20038;-55
2023/08/24 05:00:40;;;;;;;5.13;4.65;;;15.40;99.90;;;;;;4942254;28;20036;-55
2023/08/24 05:03:06;;;;;;;5.95;4.50;;;15.40;99.90;;;;;;4939459;28;20034;-56
2023/08/24 05:05:35;;;;;;;6.20;5.03;;;15.40;99.90;;;;;;4939266;28;20444;-56
2023/08/24 05:08:02;;;;;;;5.97;4.75;;;15.50;99.90;;;;;;4941601;28;20082;-56
2023/08/24 05:10:32;;;;;;;6.03;5.00;;;15.50;99.90;;;;;;4938591;28;20412;-55
2023/08/24 05:12:57;;;;;;;5.88;5.15;;;15.60;99.90;;;;;;4941077;28;20034;-55
2023/08/24 05:15:23;;;;;;;6.32;5.03;;;15.60;99.90;;;;;;4948844;28;20110;-55
2023/08/24 05:17:50;;;;;;;7.43;5.85;;;15.60;99.90;;;;;;4948349;28;20031;-56
2023/08/24 05:20:15;;;;;;;7.90;5.70;;;15.70;99.90;;;;;;4937862;28;20035;-55
2023/08/24 05:22:41;;;;;;;5.78;5.18;;;15.70;99.90;;;;;;4948053;28;20699;-55
2023/08/24 05:25:07;;;;;;;6.95;4.78;;;15.70;99.90;;;;;;4938959;29;20114;-55
2023/08/24 05:27:32;;;;;;;5.40;4.88;;;15.80;99.90;;;;;;4947885;28;20028;-55
2023/08/24 05:29:58;;;;;;;4.85;4.45;;;15.90;99.90;;;;;;4948381;29;20106;-55
2023/08/24 05:32:24;;;;;;;9.27;5.70;;;16.00;99.90;;;;;;4948519;28;20102;-55
2023/08/24 05:34:50;;;;;;;9.32;5.68;;;16.10;99.90;;;;;;4943796;28;20070;-55
2023/08/24 05:37:16;;;;;;;6.55;4.90;;;16.20;99.90;;;;;;4947712;28;20015;-55
2023/08/24 05:39:41;;;;;;;6.60;4.70;;;16.30;99.90;;;;;;4948403;28;20036;-55
2023/08/24 05:42:08;;;;;;;11.18;6.32;;;16.40;99.90;;;;;;4948228;28;20024;-56
2023/08/24 05:44:34;;;;;;;6.20;5.35;;;16.60;99.90;;;;;;4940238;29;20023;-56
2023/08/24 05:46:59;;;;;;;5.93;5.13;;;16.70;99.90;;;;;;4947459;28;20525;-55
2023/08/24 05:49:25;;;;;;;6.07;4.57;;;16.80;99.90;;;;;;4948186;29;20026;-56
2023/08/24 05:51:51;;;;;;;7.28;4.72;;;17.00;99.90;;;;;;4937626;28;20078;-57
2023/08/24 05:54:20;;;;;;;7.18;4.57;;;17.20;99.90;;;;;;4948477;29;20318;-57
2023/08/24 05:56:47;;;;;;;5.07;3.95;;;17.40;99.90;;;;;;4947974;28;20427;-56
2023/08/24 05:59:13;;;;;;;5.22;4.00;;;17.50;99.90;;;;;;4947745;28;20109;-56
2023/08/24 06:01:38;;;;;;;6.25;4.63;;;17.60;99.90;;;;;;4940395;28;20588;-57
2023/08/24 06:04:08;;;;;;;4.28;3.70;;;17.80;99.90;;;;;;4933629;28;20030;-57
2023/08/24 06:06:34;;;;;;;4.97;4.40;;;17.90;99.90;;;;;;4936528;29;20154;-56
2023/08/24 06:09:00;;;;;;;4.68;4.10;;;18.00;99.90;;;;;;4937124;29;20264;-56
2023/08/24 06:11:25;;;;;;;5.32;4.38;;;18.10;99.90;;;;;;4948628;28;20016;-56
2023/08/24 06:13:53;;;;;;;6.28;4.10;;;18.10;99.90;;;;;;4944281;28;20055;-56
2023/08/24 06:16:19;;;;;;;7.72;3.75;;;18.20;99.90;;;;;;4942587;29;20015;-56
2023/08/24 06:18:44;;;;;;;4.95;3.88;;;18.40;99.90;;;;;;4949172;29;20629;-56
2023/08/24 06:21:10;;;;;;;4.75;4.15;;;18.50;99.90;;;;;;4949246;28;20027;-56
2023/08/24 06:23:35;;;;;;;4.57;4.10;;;18.70;99.90;;;;;;4949292;28;20030;-56
2023/08/24 06:26:01;;;;;;;5.53;3.88;;;18.80;99.90;;;;;;4938883;29;20395;-56
2023/08/24 06:28:27;;;;;;;4.50;4.07;;;19.00;99.90;;;;;;4949324;29;20320;-56
2023/08/24 06:30:54;;;;;;;7.65;4.10;;;19.10;99.90;;;;;;4946706;29;20031;-56
2023/08/24 06:33:20;;;;;;;5.55;3.97;;;19.20;99.90;;;;;;4940562;28;20023;-56
2023/08/24 06:35:45;;;;;;;4.68;3.53;;;19.30;99.90;;;;;;4944406;28;20042;-57
2023/08/24 06:38:11;;;;;;;4.70;4.20;;;19.30;99.90;;;;;;4940603;28;20046;-56
2023/08/24 06:40:37;;;;;;;5.50;4.13;;;19.30;99.90;;;;;;4946344;28;20043;-57
2023/08/24 06:43:02;;;;;;;8.15;4.13;;;19.30;99.90;;;;;;4946599;28;20115;-56
2023/08/24 06:45:28;;;;;;;5.93;3.63;;;19.30;99.90;;;;;;4941195;28;20328;-56
2023/08/24 06:47:54;;;;;;;4.90;3.72;;;19.30;99.90;;;;;;4960828;28;20063;-56
2023/08/24 06:50:20;;;;;;;5.80;3.72;;;19.20;99.90;;;;;;4931587;29;20016;-56
2023/08/24 06:52:46;;;;;;;6.50;3.78;;;19.30;99.90;;;;;;4931524;29;20074;-56
2023/08/24 06:55:12;;;;;;;6.80;4.22;;;19.30;99.90;;;;;;4931511;29;20043;-56
2023/08/24 06:57:38;;;;;;;4.07;3.63;;;19.30;99.90;;;;;;4931064;29;20489;-56
2023/08/24 07:00:07;;;;;;;4.60;4.20;;;19.30;99.90;;;;;;4945501;29;20040;-56
2023/08/24 07:02:33;;;;;;;5.15;4.30;;;19.30;99.90;;;;;;4950814;28;20038;-56
2023/08/24 07:04:59;;;;;;;7.38;4.13;;;19.30;99.90;;;;;;4945529;28;20024;-56
2023/08/24 07:07:25;;;;;;;6.70;4.15;;;19.40;99.90;;;;;;4961673;28;20023;-57
2023/08/24 07:09:50;;;;;;;7.07;4.18;;;19.50;99.90;;;;;;4946806;29;20019;-57
2023/08/24 07:12:16;;;;;;;10.77;4.80;;;19.60;99.90;;;;;;4947419;29;20035;-57
2023/08/24 07:14:42;;;;;;;4.63;4.05;;;19.60;99.90;;;;;;4941293;28;20028;-56
2023/08/24 07:17:07;;;;;;;5.47;4.22;;;19.60;99.90;;;;;;4948562;28;20046;-56
2023/08/24 07:19:33;;;;;;;5.35;4.70;;;19.70;99.90;;;;;;4945835;29;20066;-56
2023/08/24 07:21:59;;;;;;;7.30;4.20;;;19.70;99.90;;;;;;4947569;29;20027;-57
2023/08/24 07:24:28;;;;;;;6.35;4.30;;;19.70;99.90;;;;;;4949866;29;20034;-57
2023/08/24 07:26:54;;;;;;;5.05;4.55;;;19.80;99.90;;;;;;4950079;28;20028;-56
2023/08/24 07:29:21;;;;;;;6.95;4.10;;;19.80;99.90;;;;;;4950091;28;20011;-56
2023/08/24 07:31:46;;;;;;;7.78;4.70;;;19.90;99.90;;;;;;4934832;28;20027;-56
2023/08/24 07:34:12;;;;;;;8.90;4.70;;;20.00;99.90;;;;;;4963308;28;20035;-56
2023/08/24 07:36:37;;;;;;;10.63;4.20;;;20.20;99.90;;;;;;4950147;28;20405;-56
2023/08/24 07:39:04;;;;;;;6.70;3.90;;;20.30;99.90;;;;;;4949436;28;20259;-57
2023/08/24 07:41:30;;;;;;;5.93;4.10;;;20.50;99.90;;;;;;4945657;28;20401;-57
2023/08/24 07:43:56;;;;;;;5.65;4.00;;;20.70;99.90;;;;;;4946762;29;20451;-57
2023/08/24 07:46:22;;;;;;;6.88;3.63;;;20.90;99.90;;;;;;4949884;28;20023;-56
2023/08/24 07:48:47;;;;;;;5.47;3.67;;;21.00;99.90;;;;;;4949536;29;20020;-57
2023/08/24 07:51:13;;;;;;;6.47;4.05;;;21.10;99.90;;;;;;4949587;29;20024;-56
2023/08/24 07:53:39;;;;;;;5.40;4.20;;;21.20;99.90;;;;;;4949760;28;20031;-57
2023/08/24 07:56:05;;;;;;;5.95;3.60;;;21.30;99.90;;;;;;4946442;28;20028;-57
2023/08/24 07:58:31;;;;;;;5.93;3.83;;;21.50;99.90;;;;;;4949456;28;20114;-57
2023/08/24 08:00:58;;;;;;;5.28;3.53;;;21.90;99.90;;;;;;4945574;28;20024;-57
2023/08/24 08:03:24;;;;;;;4.20;3.20;;;22.60;99.90;;;;;;4945112;28;20020;-57
2023/08/24 08:05:49;;;;;;;7.50;3.42;;;23.70;99.90;;;;;;4941492;29;20466;-58
2023/08/24 08:08:15;;;;;;;4.50;2.75;;;24.70;99.90;;;;;;4948683;28;20103;-58
2023/08/24 08:10:41;;;;;;;4.30;2.75;;;25.90;99.70;;;;;;4949500;28;20529;-57
2023/08/24 08:13:08;;;;;;;8.00;3.85;;;27.20;97.40;;;;;;4949179;28;20460;-58
2023/08/24 08:15:33;;;;;;;5.15;2.97;;;28.30;92.40;;;;;;4950021;28;20448;-57
2023/08/24 08:17:59;;;;;;;3.20;2.53;;;29.00;91.60;;;;;;4949195;28;20031;-58
2023/08/24 08:20:25;;;;;;;5.85;2.80;;;29.80;90.20;;;;;;4945048;28;20031;-57
2023/08/24 08:22:50;;;;;;;5.28;2.78;;;30.00;89.80;;;;;;4945267;29;20032;-59
2023/08/24 08:25:21;;;;;;;4.28;2.38;;;30.80;88.00;;;;;;4948703;28;20019;-58
2023/08/24 08:27:47;;;;;;;5.80;1.95;;;30.90;86.00;;;;;;4943832;28;20101;-58
2023/08/24 08:30:14;;;;;;;5.40;2.38;;;31.30;85.20;;;;;;4938801;28;20662;-59
2023/08/24 08:32:40;;;;;;;4.63;2.30;;;32.20;79.80;;;;;;4939916;29;20031;-58
2023/08/24 08:35:05;;;;;;;3.63;1.88;;;32.30;80.20;;;;;;4960166;28;20429;-59
2023/08/24 08:37:34;;;;;;;4.75;2.30;;;32.60;79.10;;;;;;4937840;28;20516;-58
2023/08/24 08:39:59;;;;;;;5.70;2.03;;;32.70;76.80;;;;;;4940008;29;20089;-58
2023/08/24 08:42:25;;;;;;;4.05;2.00;;;33.50;76.10;;;;;;4940471;28;20012;-58
2023/08/24 08:44:53;;;;;;;3.83;2.00;;;34.50;74.30;;;;;;4940259;29;20043;-58
2023/08/24 08:47:21;;;;;;;1.52;1.40;;;35.10;72.90;;;;;;4936143;28;20020;-58
2023/08/24 08:49:48;;;;;;;4.43;2.10;;;36.00;69.70;;;;;;4952322;28;20035;-59
2023/08/24 08:52:14;;;;;;;3.10;1.90;;;36.40;68.60;;;;;;4937553;28;20023;-58
2023/08/24 08:54:40;;;;;;;3.65;2.33;;;36.80;67.50;;;;;;4938314;29;20606;-58
2023/08/24 08:57:06;;;;;;;2.50;1.70;;;36.40;66.10;;;;;;4934481;28;20035;-58
2023/08/24 08:59:33;;;;;;;4.00;1.90;;;37.00;65.40;;;;;;4933284;28;20508;-58
2023/08/24 09:02:01;;;;;;;3.45;1.88;;;37.40;67.10;;;;;;4936002;28;20067;-59
2023/08/24 09:04:33;;;;;;;4.63;2.80;;;37.70;63.70;;;;;;4936418;29;20028;-59
2023/08/24 09:07:03;;;;;;;2.95;1.88;;;37.60;64.20;;;;;;4936729;28;20020;-59
2023/08/24 09:09:29;;;;;;;3.80;2.20;;;37.70;62.60;;;;;;4934371;28;20102;-60
2023/08/24 09:11:55;;;;;;;4.15;1.92;;;38.10;61.30;;;;;;4936225;28;20107;-59
2023/08/24 09:14:20;;;;;;;3.60;1.83;;;37.80;61.00;;;;;;4936223;29;20036;-59
2023/08/24 09:16:46;;;;;;;3.90;2.08;;;38.30;59.40;;;;;;4935430;29;20030;-59
2023/08/24 09:19:12;;;;;;;3.17;2.15;;;38.40;59.30;;;;;;4934744;29;20082;-60
2023/08/24 09:21:39;;;;;;;3.78;2.28;;;38.50;59.40;;;;;;4938306;29;20322;-60
2023/08/24 09:24:05;;;;;;;5.80;2.15;;;38.70;59.90;;;;;;4936160;28;20019;-60
2023/08/24 09:26:36;;;;;;;2.28;1.83;;;38.10;59.30;;;;;;4937403;28;20031;-59
2023/08/24 09:29:13;;;;;;;6.50;2.20;;;38.50;59.10;;;;;;4939188;28;20035;-60
2023/08/24 09:31:39;;;;;;;4.93;1.90;;;38.90;57.60;;;;;;4938129;29;20474;-60
2023/08/24 09:34:05;;;;;;;3.17;2.05;;;39.10;57.30;;;;;;4936107;28;20027;-59
2023/08/24 09:36:32;;;;;;;2.70;1.73;;;39.10;56.50;;;;;;4936772;29;20447;-60
2023/08/24 09:39:00;;;;;;;3.72;2.13;;;39.30;57.50;;;;;;4936570;28;20115;-59
2023/08/24 09:41:40;;;;;;;2.73;2.10;;;40.30;56.80;;;;;;4948394;28;20058;-60
2023/08/24 09:44:08;;;;;;;2.92;1.85;;;40.40;58.00;;;;;;4948127;29;20373;-59
2023/08/24 09:46:35;;;;;;;2.65;1.92;;;39.80;56.30;;;;;;4950693;28;20020;-61
2023/08/24 09:49:01;;;;;;;2.90;1.73;;;39.40;56.20;;;;;;4949009;28;20026;-59
2023/08/24 09:51:29;;;;;;;3.03;1.90;;;38.90;57.10;;;;;;4949477;28;20447;-60
2023/08/24 09:53:58;;;;;;;7.17;2.33;;;39.20;57.70;;;;;;4943234;28;20127;-61
2023/08/24 09:56:27;;;;;;;5.88;2.30;;;39.10;58.90;;;;;;4943219;28;20032;-59
2023/08/24 09:58:55;;;;;;;5.10;2.35;;;39.10;55.70;;;;;;4942812;28;20024;-60
2023/08/24 10:01:21;;;;;;;4.22;1.92;;;38.90;56.20;;;;;;4938732;28;20106;-59
2023/08/24 10:03:55;;;;;;;3.85;2.10;;;39.00;57.50;;;;;;4939304;28;20027;-59
2023/08/24 10:06:22;;;;;;;8.35;2.05;;;39.20;55.40;;;;;;4940879;29;20024;-59
2023/08/24 10:08:54;;;;;;;3.70;2.35;;;38.80;58.20;;;;;;4939246;28;20016;-55
2023/08/24 10:11:25;;;;;;;4.53;2.03;;;39.30;57.50;;;;;;4940599;29;20423;-55
2023/08/24 10:14:10;;;;;;;3.03;2.10;;;39.70;56.30;;;;;;4951243;28;20039;-55
2023/08/24 10:16:36;;;;;;;4.57;2.13;;;39.50;55.00;;;;;;4951325;29;20024;-55
2023/08/24 10:19:03;;;;;;;3.88;1.98;;;39.20;54.00;;;;;;4950783;28;20507;-55
2023/08/24 10:21:29;;;;;;;3.17;1.88;;;37.90;55.20;;;;;;4951267;28;20149;-55
2023/08/24 10:23:57;;;;;;;4.60;1.67;;;37.30;57.50;;;;;;4951156;28;20030;-54
2023/08/24 10:26:24;;;;;;;3.80;1.92;;;38.70;56.80;;;;;;4962699;28;20024;-55
2023/08/24 10:28:53;;;;;;;2.40;1.90;;;39.20;55.20;;;;;;4946897;29;20035;-55
2023/08/24 10:31:19;;;;;;;3.47;1.90;;;39.00;57.00;;;;;;4948323;28;20054;-55
2023/08/24 10:33:49;;;;;;;2.60;1.98;;;39.20;57.80;;;;;;4944029;28;20412;-55
2023/08/24 10:36:16;;;;;;;2.10;1.90;;;39.90;56.90;;;;;;4938947;28;20035;-55
2023/08/24 10:38:43;;;;;;;4.47;2.13;;;40.60;55.90;;;;;;4949229;28;20031;-55
2023/08/24 10:41:09;;;;;;;6.93;1.95;;;39.60;55.00;;;;;;4949921;29;20082;-55
2023/08/24 10:43:38;;;;;;;2.63;2.05;;;39.90;56.80;;;;;;4950612;29;20063;-55
2023/08/24 10:46:04;;;;;;;4.88;2.00;;;39.60;55.90;;;;;;4950615;28;20023;-55
2023/08/24 10:48:39;;;;;;;5.75;2.15;;;39.60;55.00;;;;;;4945611;28;20033;-55
2023/08/24 10:51:19;;;;;;;5.03;2.25;;;39.30;56.70;;;;;;4947818;28;20027;-55
2023/08/24 10:53:46;;;;;;;4.45;2.13;;;39.50;58.20;;;;;;4950910;28;20605;-55
2023/08/24 10:56:17;;;;;;;4.80;2.08;;;39.70;55.10;;;;;;4950827;28;20508;-55
2023/08/24 10:58:44;;;;;;;6.15;1.90;;;40.10;54.30;;;;;;4949832;28;20050;-55
2023/08/24 11:01:21;;;;;;;5.20;1.90;;;40.70;52.60;;;;;;4951224;28;20392;-55
2023/08/24 11:03:55;;;;;;;5.50;2.17;;;40.40;53.70;;;;;;4946170;28;20024;-55
2023/08/24 11:06:25;;;;;;;3.72;2.00;;;39.70;56.40;;;;;;4943037;29;20553;-55
2023/08/24 11:09:06;;;;;;;5.57;2.30;;;39.00;56.50;;;;;;4950264;28;20156;-55
2023/08/24 11:11:32;;;;;;;7.03;2.70;;;38.40;53.40;;;;;;4950627;28;20400;-55
2023/08/24 11:14:19;;;;;;;3.67;1.90;;;37.20;55.10;;;;;;4950564;28;20031;-55
2023/08/24 11:16:49;;;;;;;3.45;2.00;;;38.10;57.90;;;;;;4950576;28;20019;-55
2023/08/24 11:19:15;;;;;;;2.45;2.00;;;38.30;56.40;;;;;;4950057;28;20035;-55
2023/08/24 11:21:43;;;;;;;3.47;2.00;;;39.00;55.90;;;;;;4950988;29;20028;-55
2023/08/24 11:24:10;;;;;;;3.00;1.90;;;39.30;56.10;;;;;;4950338;28;20032;-55
2023/08/24 11:26:41;;;;;;;3.05;2.25;;;38.50;56.60;;;;;;4950394;28;20034;-55
2023/08/24 11:29:07;;;;;;;6.20;2.13;;;37.90;56.70;;;;;;4949944;29;20469;-55
2023/08/24 11:31:34;;;;;;;8.77;2.60;;;37.30;56.20;;;;;;4950462;29;20035;-55
2023/08/24 11:33:59;;;;;;;2.88;2.22;;;36.70;57.20;;;;;;4950080;28;20027;-54
2023/08/24 11:36:25;;;;;;;5.43;2.60;;;36.60;57.60;;;;;;4950055;28;20512;-55
2023/08/24 11:38:58;;;;;;;3.45;2.03;;;36.30;57.40;;;;;;4949731;28;20085;-55
2023/08/24 11:41:24;;;;;;;9.45;2.30;;;36.00;59.80;;;;;;4950397;28;20085;-54
2023/08/24 11:43:58;;;;;;;4.30;2.35;;;35.70;59.60;;;;;;4945442;28;20032;-54
2023/08/24 11:46:24;;;;;;;4.63;2.30;;;35.80;56.70;;;;;;4941586;28;20016;-54
2023/08/24 11:48:50;;;;;;;6.10;2.45;;;35.60;59.40;;;;;;4949732;28;20030;-54
2023/08/24 11:51:16;;;;;;;4.95;2.53;;;35.40;58.60;;;;;;4950094;28;20054;-54
2023/08/24 11:53:46;;;;;;;4.20;2.05;;;35.00;58.60;;;;;;4949913;28;20587;-54
2023/08/24 11:56:13;;;;;;;6.45;2.50;;;34.90;59.90;;;;;;4948013;28;20031;-54
2023/08/24 11:58:43;;;;;;;6.28;2.80;;;34.90;59.90;;;;;;4949406;28;20038;-54
2023/08/24 12:01:10;;;;;;;3.60;2.45;;;34.90;61.00;;;;;;4949759;29;20031;-54
2023/08/24 12:03:38;;;;;;;6.50;2.83;;;35.10;59.80;;;;;;4949732;28;20062;-54
2023/08/24 12:06:14;;;;;;;2.95;2.20;;;35.40;59.30;;;;;;4949777;28;20023;-54
2023/08/24 12:08:41;;;;;;;3.47;2.80;;;34.80;61.80;;;;;;4948530;28;20519;-54
2023/08/24 12:11:15;;;;;;;5.70;2.40;;;34.50;59.50;;;;;;4948971;28;20072;-54
2023/08/24 12:13:49;;;;;;;5.00;2.60;;;34.80;60.90;;;;;;4951765;28;20110;-54
2023/08/24 12:16:16;;;;;;;2.90;2.15;;;35.00;62.50;;;;;;4949117;28;20031;-54
2023/08/24 12:18:50;;;;;;;6.68;2.70;;;34.90;58.70;;;;;;4939066;28;20036;-54
2023/08/24 12:21:16;;;;;;;4.85;2.20;;;34.80;60.30;;;;;;4945716;29;20500;-54
2023/08/24 12:23:42;;;;;;;6.57;2.60;;;34.70;63.80;;;;;;4949842;28;20072;-54
2023/08/24 12:26:07;;;;;;;4.82;2.83;;;34.40;59.30;;;;;;4949516;28;20431;-54
2023/08/24 12:28:33;;;;;;;4.43;2.75;;;33.20;59.50;;;;;;4948957;28;20030;-54
2023/08/24 12:31:03;;;;;;;6.20;2.78;;;32.90;60.40;;;;;;4949277;28;20031;-54
2023/08/24 12:33:31;;;;;;;5.28;2.30;;;32.70;61.90;;;;;;4948994;28;20029;-53
2023/08/24 12:35:58;;;;;;;2.83;2.25;;;32.80;62.80;;;;;;4945246;28;20497;-53
2023/08/24 12:38:24;;;;;;;5.22;2.70;;;33.00;62.70;;;;;;4949206;28;20110;-53
2023/08/24 12:40:50;;;;;;;5.25;2.80;;;33.10;63.30;;;;;;4949128;28;20110;-54
2023/08/24 12:43:15;;;;;;;7.20;3.17;;;33.30;64.00;;;;;;4948982;29;20111;-54
2023/08/24 12:45:41;;;;;;;4.90;2.83;;;33.20;63.60;;;;;;4949550;29;20492;-53